Terminal Aerodrome Forecast
Issued by NWS Atlanta, GA

Home | Current Version | Previous Version | Text Only | Print | Product List | Glossary On
Versions: 1 2 3 4 5 6 7 8 9 10 11 12 13 14 15 16 17 18 19 20 21 22 23 24 25 26 27 28 29 30 31 32 33 34 35 36 37 38 39
000
FTUS42 KFFC 302340
TAFATL
TAF
KATL 302340Z 3100/0106 31010KT P6SM VCSH FEW030 SCT070
     FM310200 01008KT P6SM FEW040 SCT100
     FM311000 06004KT P6SM SCT080 SCT250
     FM311500 03005KT P6SM FEW050
     FM312100 34008KT P6SM SCT060
     FM010300 32010KT P6SM SCT150=

USA.gov is the U.S. government's official web portal to all federal, state and local government web resources and services.